sensor_id;sensor_type;location;lat;lon;timestamp;P1;durP1;ratioP1;P2;durP2;ratioP2
28724;SDS011;43472;48.980;9.646;2023-07-02T00:03:56;5.40;;;3.30;;
28724;SDS011;43472;48.980;9.646;2023-07-02T00:08:58;4.68;;;3.50;;
28724;SDS011;43472;48.980;9.646;2023-07-02T00:14:00;4.97;;;3.65;;
28724;SDS011;43472;48.980;9.646;2023-07-02T00:19:03;3.95;;;3.17;;
28724;SDS011;43472;48.980;9.646;2023-07-02T00:24:05;4.10;;;3.53;;
28724;SDS011;43472;48.980;9.646;2023-07-02T00:29:06;4.10;;;3.50;;
28724;SDS011;43472;48.980;9.646;2023-07-02T00:34:10;8.07;;;3.40;;
28724;SDS011;43472;48.980;9.646;2023-07-02T00:39:12;5.97;;;3.42;;
28724;SDS011;43472;48.980;9.646;2023-07-02T00:44:14;4.13;;;3.15;;
28724;SDS011;43472;48.980;9.646;2023-07-02T00:49:16;4.32;;;3.25;;
28724;SDS011;43472;48.980;9.646;2023-07-02T00:54:18;7.53;;;3.50;;
28724;SDS011;43472;48.980;9.646;2023-07-02T00:59:19;6.90;;;3.60;;
28724;SDS011;43472;48.980;9.646;2023-07-02T01:04:22;4.85;;;3.90;;
28724;SDS011;43472;48.980;9.646;2023-07-02T01:09:29;5.13;;;3.97;;
28724;SDS011;43472;48.980;9.646;2023-07-02T01:14:41;4.03;;;3.63;;
28724;SDS011;43472;48.980;9.646;2023-07-02T01:19:46;6.13;;;4.50;;
28724;SDS011;43472;48.980;9.646;2023-07-02T01:24:54;6.68;;;3.72;;
28724;SDS011;43472;48.980;9.646;2023-07-02T01:29:56;4.63;;;4.10;;
28724;SDS011;43472;48.980;9.646;2023-07-02T01:34:58;5.72;;;3.90;;
28724;SDS011;43472;48.980;9.646;2023-07-02T01:40:02;6.25;;;3.75;;
28724;SDS011;43472;48.980;9.646;2023-07-02T01:45:07;4.95;;;3.65;;
28724;SDS011;43472;48.980;9.646;2023-07-02T01:50:09;6.55;;;4.47;;
28724;SDS011;43472;48.980;9.646;2023-07-02T01:55:11;6.60;;;3.80;;
28724;SDS011;43472;48.980;9.646;2023-07-02T02:00:13;8.75;;;4.18;;
28724;SDS011;43472;48.980;9.646;2023-07-02T02:05:17;6.57;;;4.55;;
28724;SDS011;43472;48.980;9.646;2023-07-02T02:10:20;6.78;;;4.18;;
28724;SDS011;43472;48.980;9.646;2023-07-02T02:15:22;10.40;;;4.45;;
28724;SDS011;43472;48.980;9.646;2023-07-02T02:20:24;5.22;;;4.43;;
28724;SDS011;43472;48.980;9.646;2023-07-02T02:25:27;6.78;;;3.90;;
28724;SDS011;43472;48.980;9.646;2023-07-02T02:30:30;5.93;;;4.18;;
28724;SDS011;43472;48.980;9.646;2023-07-02T02:35:32;6.30;;;4.20;;
28724;SDS011;43472;48.980;9.646;2023-07-02T02:40:34;5.15;;;4.03;;
28724;SDS011;43472;48.980;9.646;2023-07-02T02:45:38;6.82;;;4.43;;
28724;SDS011;43472;48.980;9.646;2023-07-02T02:50:41;9.35;;;4.38;;
28724;SDS011;43472;48.980;9.646;2023-07-02T02:55:44;6.82;;;4.47;;
28724;SDS011;43472;48.980;9.646;2023-07-02T03:00:47;7.50;;;5.30;;
28724;SDS011;43472;48.980;9.646;2023-07-02T03:05:50;6.13;;;4.95;;
28724;SDS011;43472;48.980;9.646;2023-07-02T03:10:53;9.90;;;4.72;;
28724;SDS011;43472;48.980;9.646;2023-07-02T03:15:55;7.28;;;4.70;;
28724;SDS011;43472;48.980;9.646;2023-07-02T03:20:58;10.48;;;5.20;;
28724;SDS011;43472;48.980;9.646;2023-07-02T03:26:01;9.32;;;4.30;;
28724;SDS011;43472;48.980;9.646;2023-07-02T03:31:03;7.50;;;4.07;;
28724;SDS011;43472;48.980;9.646;2023-07-02T03:36:07;6.75;;;4.13;;
28724;SDS011;43472;48.980;9.646;2023-07-02T03:41:09;7.28;;;4.20;;
28724;SDS011;43472;48.980;9.646;2023-07-02T03:46:12;13.90;;;4.80;;
28724;SDS011;43472;48.980;9.646;2023-07-02T03:51:15;10.10;;;4.43;;
28724;SDS011;43472;48.980;9.646;2023-07-02T03:56:17;14.10;;;5.35;;
28724;SDS011;43472;48.980;9.646;2023-07-02T04:01:20;10.32;;;4.65;;
28724;SDS011;43472;48.980;9.646;2023-07-02T04:06:23;9.63;;;4.95;;
28724;SDS011;43472;48.980;9.646;2023-07-02T04:11:25;12.05;;;5.47;;
28724;SDS011;43472;48.980;9.646;2023-07-02T04:16:27;9.73;;;5.20;;
28724;SDS011;43472;48.980;9.646;2023-07-02T04:21:29;11.93;;;5.22;;
28724;SDS011;43472;48.980;9.646;2023-07-02T04:26:31;11.48;;;4.65;;
28724;SDS011;43472;48.980;9.646;2023-07-02T04:31:53;11.00;;;5.22;;
28724;SDS011;43472;48.980;9.646;2023-07-02T04:36:55;11.30;;;5.63;;
28724;SDS011;43472;48.980;9.646;2023-07-02T04:41:57;11.45;;;6.03;;
28724;SDS011;43472;48.980;9.646;2023-07-02T04:47:00;12.45;;;5.53;;
28724;SDS011;43472;48.980;9.646;2023-07-02T04:52:03;12.65;;;5.90;;
28724;SDS011;43472;48.980;9.646;2023-07-02T04:57:05;14.52;;;6.50;;
28724;SDS011;43472;48.980;9.646;2023-07-02T05:02:07;10.25;;;5.55;;
28724;SDS011;43472;48.980;9.646;2023-07-02T05:07:08;13.77;;;5.75;;
28724;SDS011;43472;48.980;9.646;2023-07-02T05:12:10;10.50;;;5.93;;
28724;SDS011;43472;48.980;9.646;2023-07-02T05:17:12;13.25;;;6.18;;
28724;SDS011;43472;48.980;9.646;2023-07-02T05:22:15;11.05;;;6.20;;
28724;SDS011;43472;48.980;9.646;2023-07-02T05:27:20;16.48;;;6.20;;
28724;SDS011;43472;48.980;9.646;2023-07-02T05:32:22;11.32;;;6.85;;
28724;SDS011;43472;48.980;9.646;2023-07-02T05:37:24;13.70;;;6.05;;
28724;SDS011;43472;48.980;9.646;2023-07-02T05:42:26;9.13;;;5.53;;
28724;SDS011;43472;48.980;9.646;2023-07-02T05:47:28;14.85;;;5.88;;
28724;SDS011;43472;48.980;9.646;2023-07-02T05:52:31;13.45;;;5.28;;
28724;SDS011;43472;48.980;9.646;2023-07-02T05:57:33;16.17;;;5.93;;
28724;SDS011;43472;48.980;9.646;2023-07-02T06:02:35;13.80;;;4.88;;
28724;SDS011;43472;48.980;9.646;2023-07-02T06:07:37;11.00;;;5.18;;
28724;SDS011;43472;48.980;9.646;2023-07-02T06:12:40;9.63;;;5.13;;
28724;SDS011;43472;48.980;9.646;2023-07-02T06:17:44;10.73;;;5.45;;
28724;SDS011;43472;48.980;9.646;2023-07-02T06:22:46;9.50;;;4.18;;
28724;SDS011;43472;48.980;9.646;2023-07-02T06:27:48;10.38;;;4.35;;
28724;SDS011;43472;48.980;9.646;2023-07-02T06:32:50;12.77;;;4.60;;
28724;SDS011;43472;48.980;9.646;2023-07-02T06:37:52;14.25;;;5.90;;
28724;SDS011;43472;48.980;9.646;2023-07-02T06:42:54;19.55;;;5.25;;
28724;SDS011;43472;48.980;9.646;2023-07-02T06:47:56;15.75;;;7.03;;
28724;SDS011;43472;48.980;9.646;2023-07-02T06:52:58;10.35;;;5.00;;
28724;SDS011;43472;48.980;9.646;2023-07-02T06:57:59;14.65;;;5.90;;
28724;SDS011;43472;48.980;9.646;2023-07-02T07:03:04;14.23;;;5.97;;
28724;SDS011;43472;48.980;9.646;2023-07-02T07:08:05;9.00;;;4.78;;
28724;SDS011;43472;48.980;9.646;2023-07-02T07:13:07;15.57;;;5.55;;
28724;SDS011;43472;48.980;9.646;2023-07-02T07:18:12;15.45;;;6.35;;
28724;SDS011;43472;48.980;9.646;2023-07-02T07:23:15;16.83;;;6.43;;
28724;SDS011;43472;48.980;9.646;2023-07-02T07:28:18;13.55;;;6.45;;
28724;SDS011;43472;48.980;9.646;2023-07-02T07:33:20;12.48;;;6.47;;
28724;SDS011;43472;48.980;9.646;2023-07-02T07:38:22;11.30;;;5.90;;
28724;SDS011;43472;48.980;9.646;2023-07-02T07:43:24;18.38;;;7.00;;
28724;SDS011;43472;48.980;9.646;2023-07-02T07:48:26;13.20;;;6.13;;
28724;SDS011;43472;48.980;9.646;2023-07-02T07:53:28;12.90;;;6.57;;
28724;SDS011;43472;48.980;9.646;2023-07-02T07:58:31;16.10;;;7.53;;
28724;SDS011;43472;48.980;9.646;2023-07-02T08:03:33;11.13;;;5.68;;
28724;SDS011;43472;48.980;9.646;2023-07-02T08:08:38;12.48;;;7.15;;
28724;SDS011;43472;48.980;9.646;2023-07-02T08:13:40;14.68;;;7.70;;
28724;SDS011;43472;48.980;9.646;2023-07-02T08:18:41;14.07;;;7.38;;
28724;SDS011;43472;48.980;9.646;2023-07-02T08:23:44;16.73;;;8.38;;
28724;SDS011;43472;48.980;9.646;2023-07-02T08:28:46;18.73;;;8.32;;
28724;SDS011;43472;48.980;9.646;2023-07-02T08:33:48;22.98;;;10.80;;
28724;SDS011;43472;48.980;9.646;2023-07-02T08:38:50;19.83;;;8.50;;
28724;SDS011;43472;48.980;9.646;2023-07-02T08:43:54;25.67;;;8.55;;
28724;SDS011;43472;48.980;9.646;2023-07-02T08:48:57;19.83;;;9.18;;
28724;SDS011;43472;48.980;9.646;2023-07-02T08:53:59;18.95;;;8.27;;
28724;SDS011;43472;48.980;9.646;2023-07-02T08:59:01;18.27;;;9.05;;
28724;SDS011;43472;48.980;9.646;2023-07-02T09:04:03;21.20;;;9.63;;
28724;SDS011;43472;48.980;9.646;2023-07-02T09:09:05;32.55;;;9.50;;
28724;SDS011;43472;48.980;9.646;2023-07-02T09:14:07;21.08;;;8.52;;
28724;SDS011;43472;48.980;9.646;2023-07-02T09:19:09;23.17;;;10.18;;
28724;SDS011;43472;48.980;9.646;2023-07-02T09:24:14;24.70;;;10.02;;
28724;SDS011;43472;48.980;9.646;2023-07-02T09:29:24;20.35;;;9.80;;
28724;SDS011;43472;48.980;9.646;2023-07-02T09:34:30;25.23;;;10.52;;
28724;SDS011;43472;48.980;9.646;2023-07-02T09:39:34;23.60;;;11.13;;
28724;SDS011;43472;48.980;9.646;2023-07-02T09:44:37;20.77;;;10.07;;
28724;SDS011;43472;48.980;9.646;2023-07-02T09:49:41;18.60;;;9.90;;
28724;SDS011;43472;48.980;9.646;2023-07-02T09:54:46;19.38;;;10.85;;
28724;SDS011;43472;48.980;9.646;2023-07-02T09:59:48;24.17;;;10.88;;
28724;SDS011;43472;48.980;9.646;2023-07-02T10:04:51;21.23;;;10.45;;
28724;SDS011;43472;48.980;9.646;2023-07-02T10:09:56;24.10;;;10.52;;
28724;SDS011;43472;48.980;9.646;2023-07-02T10:14:58;27.67;;;12.18;;
28724;SDS011;43472;48.980;9.646;2023-07-02T10:20:04;21.92;;;11.82;;
28724;SDS011;43472;48.980;9.646;2023-07-02T10:25:27;22.20;;;10.63;;
28724;SDS011;43472;48.980;9.646;2023-07-02T10:30:34;26.55;;;12.90;;
28724;SDS011;43472;48.980;9.646;2023-07-02T10:35:38;22.30;;;11.50;;
28724;SDS011;43472;48.980;9.646;2023-07-02T10:40:44;26.23;;;12.75;;
28724;SDS011;43472;48.980;9.646;2023-07-02T10:45:47;26.70;;;11.57;;
28724;SDS011;43472;48.980;9.646;2023-07-02T10:50:49;26.08;;;12.18;;
28724;SDS011;43472;48.980;9.646;2023-07-02T10:55:54;23.38;;;11.38;;
28724;SDS011;43472;48.980;9.646;2023-07-02T11:00:59;23.77;;;11.27;;
28724;SDS011;43472;48.980;9.646;2023-07-02T11:06:01;26.27;;;11.50;;
28724;SDS011;43472;48.980;9.646;2023-07-02T11:11:07;25.38;;;11.52;;
28724;SDS011;43472;48.980;9.646;2023-07-02T11:16:19;18.80;;;10.48;;
28724;SDS011;43472;48.980;9.646;2023-07-02T11:21:28;21.35;;;11.57;;
28724;SDS011;43472;48.980;9.646;2023-07-02T11:26:39;20.52;;;12.10;;
28724;SDS011;43472;48.980;9.646;2023-07-02T11:31:41;23.50;;;11.18;;
28724;SDS011;43472;48.980;9.646;2023-07-02T11:36:44;18.85;;;10.45;;
28724;SDS011;43472;48.980;9.646;2023-07-02T11:41:47;20.40;;;10.63;;
28724;SDS011;43472;48.980;9.646;2023-07-02T11:46:50;23.42;;;11.63;;
28724;SDS011;43472;48.980;9.646;2023-07-02T11:51:52;20.67;;;11.10;;
28724;SDS011;43472;48.980;9.646;2023-07-02T11:56:54;20.75;;;10.60;;
28724;SDS011;43472;48.980;9.646;2023-07-02T12:01:55;21.08;;;10.98;;
28724;SDS011;43472;48.980;9.646;2023-07-02T12:06:57;19.52;;;10.60;;
28724;SDS011;43472;48.980;9.646;2023-07-02T12:11:59;21.80;;;11.55;;
28724;SDS011;43472;48.980;9.646;2023-07-02T12:17:01;22.38;;;10.90;;
28724;SDS011;43472;48.980;9.646;2023-07-02T12:22:06;23.05;;;10.82;;
28724;SDS011;43472;48.980;9.646;2023-07-02T12:27:08;21.20;;;11.23;;
28724;SDS011;43472;48.980;9.646;2023-07-02T12:32:10;19.42;;;10.73;;
28724;SDS011;43472;48.980;9.646;2023-07-02T12:37:12;21.67;;;10.13;;
28724;SDS011;43472;48.980;9.646;2023-07-02T12:42:18;20.05;;;10.85;;
28724;SDS011;43472;48.980;9.646;2023-07-02T12:47:20;20.98;;;10.77;;
28724;SDS011;43472;48.980;9.646;2023-07-02T12:52:22;16.13;;;9.80;;
28724;SDS011;43472;48.980;9.646;2023-07-02T12:57:23;21.30;;;11.25;;
28724;SDS011;43472;48.980;9.646;2023-07-02T13:02:27;19.65;;;11.43;;
28724;SDS011;43472;48.980;9.646;2023-07-02T13:07:29;23.20;;;10.85;;
28724;SDS011;43472;48.980;9.646;2023-07-02T13:12:31;19.33;;;10.50;;
28724;SDS011;43472;48.980;9.646;2023-07-02T13:17:33;22.63;;;11.65;;
28724;SDS011;43472;48.980;9.646;2023-07-02T13:22:35;22.00;;;11.45;;
28724;SDS011;43472;48.980;9.646;2023-07-02T13:27:38;24.70;;;10.98;;
28724;SDS011;43472;48.980;9.646;2023-07-02T13:32:40;20.92;;;10.85;;
28724;SDS011;43472;48.980;9.646;2023-07-02T13:37:42;26.08;;;11.50;;
28724;SDS011;43472;48.980;9.646;2023-07-02T13:42:44;26.42;;;11.35;;
28724;SDS011;43472;48.980;9.646;2023-07-02T13:47:45;22.83;;;10.50;;
28724;SDS011;43472;48.980;9.646;2023-07-02T13:52:48;23.17;;;10.82;;
28724;SDS011;43472;48.980;9.646;2023-07-02T13:57:51;25.83;;;11.52;;
28724;SDS011;43472;48.980;9.646;2023-07-02T14:02:53;24.23;;;11.95;;
28724;SDS011;43472;48.980;9.646;2023-07-02T14:07:55;20.98;;;10.25;;
28724;SDS011;43472;48.980;9.646;2023-07-02T14:12:57;23.20;;;11.57;;
28724;SDS011;43472;48.980;9.646;2023-07-02T14:17:59;25.52;;;12.13;;
28724;SDS011;43472;48.980;9.646;2023-07-02T14:23:01;20.67;;;11.10;;
28724;SDS011;43472;48.980;9.646;2023-07-02T14:28:03;21.55;;;11.35;;
28724;SDS011;43472;48.980;9.646;2023-07-02T14:33:05;21.00;;;11.23;;
28724;SDS011;43472;48.980;9.646;2023-07-02T14:38:07;20.70;;;10.32;;
28724;SDS011;43472;48.980;9.646;2023-07-02T14:43:08;21.20;;;10.52;;
28724;SDS011;43472;48.980;9.646;2023-07-02T14:48:10;21.02;;;10.68;;
28724;SDS011;43472;48.980;9.646;2023-07-02T14:53:12;18.85;;;9.52;;
28724;SDS011;43472;48.980;9.646;2023-07-02T14:58:15;23.45;;;10.65;;
28724;SDS011;43472;48.980;9.646;2023-07-02T15:03:19;19.35;;;10.50;;
28724;SDS011;43472;48.980;9.646;2023-07-02T15:08:24;19.90;;;11.25;;
28724;SDS011;43472;48.980;9.646;2023-07-02T15:13:26;22.27;;;10.98;;
28724;SDS011;43472;48.980;9.646;2023-07-02T15:18:28;19.77;;;11.00;;
28724;SDS011;43472;48.980;9.646;2023-07-02T15:23:31;23.85;;;11.20;;
28724;SDS011;43472;48.980;9.646;2023-07-02T15:28:34;19.33;;;10.27;;
28724;SDS011;43472;48.980;9.646;2023-07-02T15:33:37;21.63;;;10.45;;
28724;SDS011;43472;48.980;9.646;2023-07-02T15:38:40;20.77;;;10.13;;
28724;SDS011;43472;48.980;9.646;2023-07-02T15:43:42;22.20;;;10.30;;
28724;SDS011;43472;48.980;9.646;2023-07-02T15:48:45;19.23;;;10.68;;
28724;SDS011;43472;48.980;9.646;2023-07-02T15:53:47;18.77;;;10.18;;
28724;SDS011;43472;48.980;9.646;2023-07-02T15:58:49;20.88;;;10.90;;
28724;SDS011;43472;48.980;9.646;2023-07-02T16:03:50;17.35;;;9.32;;
28724;SDS011;43472;48.980;9.646;2023-07-02T16:08:53;20.85;;;9.43;;
28724;SDS011;43472;48.980;9.646;2023-07-02T16:13:54;23.13;;;10.68;;
28724;SDS011;43472;48.980;9.646;2023-07-02T16:18:56;23.98;;;10.63;;
28724;SDS011;43472;48.980;9.646;2023-07-02T16:23:58;21.75;;;10.23;;
28724;SDS011;43472;48.980;9.646;2023-07-02T16:29:00;21.88;;;10.10;;
28724;SDS011;43472;48.980;9.646;2023-07-02T16:34:02;16.52;;;9.82;;
28724;SDS011;43472;48.980;9.646;2023-07-02T16:39:04;20.33;;;11.07;;
28724;SDS011;43472;48.980;9.646;2023-07-02T16:44:06;17.65;;;9.68;;
28724;SDS011;43472;48.980;9.646;2023-07-02T16:49:09;21.33;;;10.18;;
28724;SDS011;43472;48.980;9.646;2023-07-02T16:54:12;22.52;;;10.20;;
28724;SDS011;43472;48.980;9.646;2023-07-02T16:59:20;24.80;;;10.45;;
28724;SDS011;43472;48.980;9.646;2023-07-02T17:04:24;20.33;;;10.27;;
28724;SDS011;43472;48.980;9.646;2023-07-02T17:09:34;18.00;;;9.45;;
28724;SDS011;43472;48.980;9.646;2023-07-02T17:14:43;21.75;;;10.55;;
28724;SDS011;43472;48.980;9.646;2023-07-02T17:19:51;20.02;;;10.07;;
28724;SDS011;43472;48.980;9.646;2023-07-02T17:24:53;21.00;;;10.07;;
28724;SDS011;43472;48.980;9.646;2023-07-02T17:29:57;22.45;;;9.27;;
28724;SDS011;43472;48.980;9.646;2023-07-02T17:35:00;17.73;;;9.00;;
28724;SDS011;43472;48.980;9.646;2023-07-02T17:40:03;20.65;;;11.27;;
28724;SDS011;43472;48.980;9.646;2023-07-02T17:45:05;23.13;;;10.43;;
28724;SDS011;43472;48.980;9.646;2023-07-02T17:50:07;20.23;;;10.48;;
28724;SDS011;43472;48.980;9.646;2023-07-02T17:55:09;19.92;;;9.13;;
28724;SDS011;43472;48.980;9.646;2023-07-02T18:00:11;24.52;;;10.68;;
28724;SDS011;43472;48.980;9.646;2023-07-02T18:05:14;18.65;;;9.70;;
28724;SDS011;43472;48.980;9.646;2023-07-02T18:10:16;19.05;;;10.18;;
28724;SDS011;43472;48.980;9.646;2023-07-02T18:15:17;20.98;;;8.90;;
28724;SDS011;43472;48.980;9.646;2023-07-02T18:20:19;22.30;;;10.68;;
28724;SDS011;43472;48.980;9.646;2023-07-02T18:25:22;23.67;;;10.60;;
28724;SDS011;43472;48.980;9.646;2023-07-02T18:30:23;20.95;;;9.93;;
28724;SDS011;43472;48.980;9.646;2023-07-02T18:35:25;19.95;;;10.77;;
28724;SDS011;43472;48.980;9.646;2023-07-02T18:40:27;23.27;;;11.40;;
28724;SDS011;43472;48.980;9.646;2023-07-02T18:45:29;25.58;;;11.07;;
28724;SDS011;43472;48.980;9.646;2023-07-02T18:50:32;18.05;;;10.02;;
28724;SDS011;43472;48.980;9.646;2023-07-02T18:55:34;23.50;;;10.75;;
28724;SDS011;43472;48.980;9.646;2023-07-02T19:00:36;22.52;;;10.95;;
28724;SDS011;43472;48.980;9.646;2023-07-02T19:05:38;32.22;;;11.80;;
28724;SDS011;43472;48.980;9.646;2023-07-02T19:10:40;28.38;;;11.15;;
28724;SDS011;43472;48.980;9.646;2023-07-02T19:15:42;19.50;;;10.13;;
28724;SDS011;43472;48.980;9.646;2023-07-02T19:20:45;23.25;;;10.73;;
28724;SDS011;43472;48.980;9.646;2023-07-02T19:25:47;22.40;;;11.73;;
28724;SDS011;43472;48.980;9.646;2023-07-02T19:30:49;28.90;;;11.95;;
28724;SDS011;43472;48.980;9.646;2023-07-02T19:35:57;28.70;;;12.55;;
28724;SDS011;43472;48.980;9.646;2023-07-02T19:40:59;25.20;;;11.75;;
28724;SDS011;43472;48.980;9.646;2023-07-02T19:46:02;25.27;;;11.02;;
28724;SDS011;43472;48.980;9.646;2023-07-02T19:51:04;21.02;;;10.38;;
28724;SDS011;43472;48.980;9.646;2023-07-02T19:56:07;29.35;;;12.75;;
28724;SDS011;43472;48.980;9.646;2023-07-02T20:01:10;30.25;;;9.93;;
28724;SDS011;43472;48.980;9.646;2023-07-02T20:06:13;23.35;;;11.45;;
28724;SDS011;43472;48.980;9.646;2023-07-02T20:11:16;24.25;;;10.18;;
28724;SDS011;43472;48.980;9.646;2023-07-02T20:16:17;27.30;;;10.68;;
28724;SDS011;43472;48.980;9.646;2023-07-02T20:21:20;21.67;;;11.57;;
28724;SDS011;43472;48.980;9.646;2023-07-02T20:26:22;26.70;;;11.02;;
28724;SDS011;43472;48.980;9.646;2023-07-02T20:31:24;23.10;;;10.70;;
28724;SDS011;43472;48.980;9.646;2023-07-02T20:36:26;23.30;;;10.75;;
28724;SDS011;43472;48.980;9.646;2023-07-02T20:41:29;27.15;;;11.40;;
28724;SDS011;43472;48.980;9.646;2023-07-02T20:46:31;23.60;;;10.30;;
28724;SDS011;43472;48.980;9.646;2023-07-02T20:51:33;25.33;;;11.20;;
28724;SDS011;43472;48.980;9.646;2023-07-02T20:56:37;24.95;;;11.95;;
28724;SDS011;43472;48.980;9.646;2023-07-02T21:01:40;22.67;;;11.23;;
28724;SDS011;43472;48.980;9.646;2023-07-02T21:06:41;26.38;;;11.10;;
28724;SDS011;43472;48.980;9.646;2023-07-02T21:11:43;34.35;;;12.07;;
28724;SDS011;43472;48.980;9.646;2023-07-02T21:16:45;32.28;;;12.05;;
28724;SDS011;43472;48.980;9.646;2023-07-02T21:21:50;33.78;;;16.20;;
28724;SDS011;43472;48.980;9.646;2023-07-02T21:26:52;27.88;;;11.93;;
28724;SDS011;43472;48.980;9.646;2023-07-02T21:31:54;27.23;;;12.38;;
28724;SDS011;43472;48.980;9.646;2023-07-02T21:36:56;32.33;;;13.18;;
28724;SDS011;43472;48.980;9.646;2023-07-02T21:41:58;25.50;;;12.32;;
28724;SDS011;43472;48.980;9.646;2023-07-02T21:47:00;36.47;;;13.27;;
28724;SDS011;43472;48.980;9.646;2023-07-02T21:52:02;27.85;;;12.63;;
28724;SDS011;43472;48.980;9.646;2023-07-02T21:57:04;29.13;;;12.85;;
28724;SDS011;43472;48.980;9.646;2023-07-02T22:02:06;32.35;;;12.27;;
28724;SDS011;43472;48.980;9.646;2023-07-02T22:07:08;20.92;;;11.43;;
28724;SDS011;43472;48.980;9.646;2023-07-02T22:12:10;25.05;;;11.20;;
28724;SDS011;43472;48.980;9.646;2023-07-02T22:17:12;25.30;;;11.00;;
28724;SDS011;43472;48.980;9.646;2023-07-02T22:22:14;23.02;;;11.80;;
28724;SDS011;43472;48.980;9.646;2023-07-02T22:27:16;24.05;;;11.57;;
28724;SDS011;43472;48.980;9.646;2023-07-02T22:32:17;26.58;;;11.82;;
28724;SDS011;43472;48.980;9.646;2023-07-02T22:37:22;32.00;;;13.07;;
28724;SDS011;43472;48.980;9.646;2023-07-02T22:42:25;21.95;;;11.15;;
28724;SDS011;43472;48.980;9.646;2023-07-02T22:47:27;28.95;;;12.30;;
28724;SDS011;43472;48.980;9.646;2023-07-02T22:52:28;23.55;;;12.05;;
28724;SDS011;43472;48.980;9.646;2023-07-02T22:57:30;27.45;;;12.18;;
28724;SDS011;43472;48.980;9.646;2023-07-02T23:02:33;26.83;;;11.95;;
28724;SDS011;43472;48.980;9.646;2023-07-02T23:07:35;30.15;;;12.70;;
28724;SDS011;43472;48.980;9.646;2023-07-02T23:12:39;36.72;;;16.35;;
28724;SDS011;43472;48.980;9.646;2023-07-02T23:17:47;28.60;;;12.88;;
28724;SDS011;43472;48.980;9.646;2023-07-02T23:22:50;27.27;;;11.50;;
28724;SDS011;43472;48.980;9.646;2023-07-02T23:27:52;24.13;;;11.75;;
28724;SDS011;43472;48.980;9.646;2023-07-02T23:33:04;24.95;;;11.82;;
28724;SDS011;43472;48.980;9.646;2023-07-02T23:38:11;21.92;;;11.63;;
28724;SDS011;43472;48.980;9.646;2023-07-02T23:43:13;27.27;;;11.93;;
28724;SDS011;43472;48.980;9.646;2023-07-02T23:48:15;23.52;;;12.48;;
28724;SDS011;43472;48.980;9.646;2023-07-02T23:53:16;28.25;;;12.63;;
28724;SDS011;43472;48.980;9.646;2023-07-02T23:58:18;25.63;;;12.32;;
